createdAt,value
2023-03-19T00:00:33.368Z,96792.03
2023-03-19T00:03:00.096Z,96793.66
2023-03-19T00:05:26.916Z,96794.34
2023-03-19T00:07:53.393Z,96791.84
2023-03-19T00:10:19.944Z,96787.78
2023-03-19T00:12:46.534Z,96792.91
2023-03-19T00:15:14.666Z,96784.31
2023-03-19T00:17:44.409Z,96786.84
2023-03-19T00:20:12.521Z,96790.22
2023-03-19T00:22:39.917Z,96795.19
2023-03-19T00:25:08.148Z,96792.75
2023-03-19T00:27:34.819Z,96800.88
2023-03-19T00:30:02.591Z,96798.44
2023-03-19T00:32:30.068Z,96796.81
2023-03-19T00:34:56.717Z,96798.69
2023-03-19T00:37:23.449Z,96809.16
2023-03-19T00:39:50.311Z,96807.41
2023-03-19T00:42:16.837Z,96795.38
2023-03-19T00:44:43.438Z,96795.81
2023-03-19T00:47:09.935Z,96783.38
2023-03-19T00:49:36.840Z,96788.38
2023-03-19T00:52:03.447Z,96790.31
2023-03-19T00:54:32.212Z,96790.75
2023-03-19T00:56:59.057Z,96793.84
2023-03-19T00:59:25.751Z,96791.53
2023-03-19T01:01:52.570Z,96786.59
2023-03-19T01:04:19.216Z,96793.50
2023-03-19T01:06:46.242Z,96793.59
2023-03-19T01:09:12.766Z,96792.97
2023-03-19T01:11:39.646Z,96792.72
2023-03-19T01:14:06.368Z,96794.78
2023-03-19T01:16:34.735Z,96807.19
2023-03-19T01:19:02.421Z,96793.47
2023-03-19T01:21:31.084Z,96806.50
2023-03-19T01:23:58.528Z,96799.38
2023-03-19T01:26:25.481Z,96799.38
2023-03-19T01:28:52.458Z,96801.91
2023-03-19T01:31:19.252Z,96808.34
2023-03-19T01:33:46.473Z,96807.94
2023-03-19T01:36:13.706Z,96803.91
2023-03-19T01:38:40.305Z,96805.69
2023-03-19T01:41:07.605Z,96802.56
2023-03-19T01:43:34.111Z,96809.72
2023-03-19T01:46:14.560Z,96808.94
2023-03-19T01:48:46.066Z,96808.22
2023-03-19T01:51:16.662Z,96805.00
2023-03-19T01:53:47.620Z,96806.81
2023-03-19T01:56:29.414Z,96809.56
2023-03-19T01:58:59.017Z,96806.09
2023-03-19T02:01:28.209Z,96807.25
2023-03-19T02:03:56.450Z,96804.16
2023-03-19T02:06:23.897Z,96812.38
2023-03-19T02:08:51.749Z,96810.59
2023-03-19T02:11:19.323Z,96809.84
2023-03-19T02:13:47.150Z,96798.50
2023-03-19T02:16:15.574Z,96812.31
2023-03-19T02:18:42.879Z,96806.53
2023-03-19T02:21:16.305Z,96817.59
2023-03-19T02:23:49.585Z,96821.09
2023-03-19T02:26:18.427Z,96816.06
2023-03-19T02:28:47.556Z,96817.13
2023-03-19T02:31:15.048Z,96812.97
2023-03-19T02:33:41.907Z,96815.09
2023-03-19T02:36:18.039Z,96816.06
2023-03-19T02:38:47.753Z,96826.63
2023-03-19T02:41:14.291Z,96824.00
2023-03-19T02:43:42.088Z,96824.91
2023-03-19T02:46:13.168Z,96828.28
2023-03-19T02:48:41.347Z,96824.91
2023-03-19T02:51:08.680Z,96820.53
2023-03-19T02:53:35.455Z,96822.81
2023-03-19T02:56:02.370Z,96822.56
2023-03-19T02:58:28.877Z,96828.03
2023-03-19T03:00:55.502Z,96823.78
2023-03-19T03:03:22.081Z,96821.25
2023-03-19T03:05:48.629Z,96827.19
2023-03-19T03:08:15.790Z,96828.84
2023-03-19T03:10:42.535Z,96825.22
2023-03-19T03:13:09.340Z,96830.38
2023-03-19T03:15:35.918Z,96831.13
2023-03-19T03:18:02.436Z,96844.22
2023-03-19T03:20:29.196Z,96842.41
2023-03-19T03:22:55.725Z,96852.09
2023-03-19T03:25:22.577Z,96851.19
2023-03-19T03:27:49.129Z,96846.31
2023-03-19T03:30:16.257Z,96838.09
2023-03-19T03:32:43.341Z,96836.56
2023-03-19T03:35:10.274Z,96849.56
2023-03-19T03:37:38.132Z,96850.69
2023-03-19T03:40:09.569Z,96859.25
2023-03-19T03:42:37.438Z,96866.03
2023-03-19T03:45:04.977Z,96866.13
2023-03-19T03:47:32.245Z,96875.06
2023-03-19T03:49:58.860Z,96869.34
2023-03-19T03:52:25.475Z,96878.88
2023-03-19T03:54:51.959Z,96880.66
2023-03-19T03:57:18.588Z,96873.75
2023-03-19T03:59:45.082Z,96879.75
2023-03-19T04:02:11.882Z,96884.94
2023-03-19T04:04:38.412Z,96885.19
2023-03-19T04:07:04.963Z,96887.84
2023-03-19T04:09:31.486Z,96892.19
2023-03-19T04:11:57.989Z,96886.22
2023-03-19T04:14:24.674Z,96889.66
2023-03-19T04:16:51.314Z,96891.19
2023-03-19T04:19:17.860Z,96896.25
2023-03-19T04:21:44.953Z,96906.66
2023-03-19T04:24:11.732Z,96905.78
2023-03-19T04:26:38.794Z,96906.00
2023-03-19T04:29:06.404Z,96889.66
2023-03-19T04:31:33.223Z,96881.41
2023-03-19T04:34:00.325Z,96878.06
2023-03-19T04:36:26.991Z,96883.09
2023-03-19T04:38:53.694Z,96885.50
2023-03-19T04:41:20.440Z,96887.25
2023-03-19T04:43:46.948Z,96893.13
2023-03-19T04:46:13.534Z,96884.47
2023-03-19T04:48:40.075Z,96875.81
2023-03-19T04:51:09.215Z,96883.69
2023-03-19T04:53:37.819Z,96886.97
2023-03-19T04:56:04.720Z,96896.38
2023-03-19T04:58:31.218Z,96891.28
2023-03-19T05:00:57.975Z,96888.41
2023-03-19T05:03:24.563Z,96892.28
2023-03-19T05:05:53.453Z,96904.44
2023-03-19T05:08:20.070Z,96901.00
2023-03-19T05:10:46.582Z,96898.59
2023-03-19T05:13:13.218Z,96902.94
2023-03-19T05:15:43.465Z,96905.53
2023-03-19T05:18:10.734Z,96911.56
2023-03-19T05:20:37.925Z,96910.75
2023-03-19T05:23:04.501Z,96912.47
2023-03-19T05:25:31.072Z,96913.41
2023-03-19T05:27:57.588Z,96910.84
2023-03-19T05:30:24.169Z,96920.16
2023-03-19T05:32:50.844Z,96916.34
2023-03-19T05:35:17.489Z,96921.50
2023-03-19T05:37:44.004Z,96917.81
2023-03-19T05:40:12.351Z,96927.69
2023-03-19T05:42:38.921Z,96933.38
2023-03-19T05:45:05.687Z,96935.66
2023-03-19T05:47:32.245Z,96942.44
2023-03-19T05:49:58.727Z,96945.22
2023-03-19T05:52:25.299Z,96956.34
2023-03-19T05:54:52.038Z,96948.34
2023-03-19T05:57:18.555Z,96954.09
2023-03-19T05:59:45.067Z,96946.22
2023-03-19T06:02:12.145Z,96948.94
2023-03-19T06:04:38.665Z,96957.00
2023-03-19T06:07:06.113Z,96960.59
2023-03-19T06:09:32.774Z,96963.47
2023-03-19T06:11:59.283Z,96951.34
2023-03-19T06:14:26.104Z,96962.50
2023-03-19T06:16:52.668Z,96962.38
2023-03-19T06:19:19.160Z,96964.69
2023-03-19T06:21:45.707Z,96970.50
2023-03-19T06:24:12.229Z,96981.03
2023-03-19T06:26:38.893Z,96980.06
2023-03-19T06:29:06.154Z,96996.88
2023-03-19T06:31:32.870Z,96997.22
2023-03-19T06:33:59.483Z,96996.44
2023-03-19T06:36:26.211Z,96997.56
2023-03-19T06:38:52.737Z,96991.41
2023-03-19T06:41:19.285Z,96999.28
2023-03-19T06:43:46.261Z,97002.50
2023-03-19T06:46:13.055Z,97007.16
2023-03-19T06:48:39.657Z,97007.97
2023-03-19T06:51:06.855Z,97007.09
2023-03-19T06:53:33.731Z,97004.91
2023-03-19T06:56:00.468Z,97006.50
2023-03-19T06:58:27.194Z,97011.56
2023-03-19T07:00:53.723Z,97007.81
2023-03-19T07:03:20.654Z,97008.66
2023-03-19T07:05:50.236Z,97023.53
2023-03-19T07:08:16.923Z,97036.34
2023-03-19T07:10:43.410Z,97031.53
2023-03-19T07:13:10.229Z,97027.56
2023-03-19T07:15:36.770Z,97026.66
2023-03-19T07:18:03.427Z,97023.34
2023-03-19T07:20:29.976Z,97029.31
2023-03-19T07:22:56.516Z,97030.72
2023-03-19T07:25:23.054Z,97035.09
2023-03-19T07:27:49.594Z,97045.47
2023-03-19T07:30:16.420Z,97046.19
2023-03-19T07:32:43.135Z,97054.34
2023-03-19T07:35:10.630Z,97064.84
2023-03-19T07:37:37.320Z,97067.81
2023-03-19T07:40:05.211Z,97072.34
2023-03-19T07:42:31.912Z,97066.69
2023-03-19T07:44:58.442Z,97063.34
2023-03-19T07:47:29.552Z,97066.91
2023-03-19T07:49:57.143Z,97074.41
2023-03-19T07:52:25.206Z,97071.06
2023-03-19T07:54:52.355Z,97080.44
2023-03-19T07:57:19.532Z,97077.94
2023-03-19T07:59:46.494Z,97075.34
2023-03-19T08:02:13.580Z,97072.81
2023-03-19T08:04:40.556Z,97075.53
2023-03-19T08:07:10.365Z,97077.88
2023-03-19T08:09:37.552Z,97073.16
2023-03-19T08:12:05.003Z,97081.25
2023-03-19T08:14:31.483Z,97075.41
2023-03-19T08:16:58.027Z,97072.22
2023-03-19T08:19:24.616Z,97072.78
2023-03-19T08:21:53.639Z,97075.59
2023-03-19T08:24:20.255Z,97069.91
2023-03-19T08:26:46.787Z,97075.00
2023-03-19T08:29:13.446Z,97076.44
2023-03-19T08:31:39.981Z,97077.88
2023-03-19T08:34:10.297Z,97073.91
2023-03-19T08:36:36.862Z,97065.88
2023-03-19T08:39:04.236Z,97069.59
2023-03-19T08:41:31.300Z,97072.47
2023-03-19T08:43:57.812Z,97079.22
2023-03-19T08:46:24.442Z,97083.91
2023-03-19T08:48:51.095Z,97080.59
2023-03-19T08:51:17.616Z,97088.38
2023-03-19T08:53:44.148Z,97080.97
2023-03-19T08:56:10.753Z,97077.47
2023-03-19T08:58:37.348Z,97078.31
2023-03-19T09:01:07.124Z,97081.31
2023-03-19T09:03:33.792Z,97084.59
2023-03-19T09:06:01.922Z,97084.41
2023-03-19T09:08:29.205Z,97091.69
2023-03-19T09:10:56.626Z,97090.03
2023-03-19T09:13:24.084Z,97087.25
2023-03-19T09:15:51.353Z,97096.31
2023-03-19T09:18:20.444Z,97105.75
2023-03-19T09:20:47.687Z,97110.00
2023-03-19T09:23:14.210Z,97108.22
2023-03-19T09:25:41.183Z,97111.97
2023-03-19T09:28:07.923Z,97110.59
2023-03-19T09:30:34.713Z,97105.16
2023-03-19T09:33:01.539Z,97108.13
2023-03-19T09:35:31.332Z,97105.16
2023-03-19T09:37:58.816Z,97106.31
2023-03-19T09:40:30.277Z,97102.09
2023-03-19T09:43:24.072Z,97110.59
2023-03-19T09:45:50.874Z,97109.38
2023-03-19T09:48:47.068Z,97112.03
2023-03-19T09:51:35.039Z,97108.78
2023-03-19T09:54:17.719Z,97113.69
2023-03-19T09:56:44.242Z,97109.75
2023-03-19T09:59:10.936Z,97106.00
2023-03-19T10:01:45.448Z,97110.88
2023-03-19T10:04:33.454Z,97108.13
2023-03-19T10:07:12.853Z,97122.69
2023-03-19T10:10:00.678Z,97126.97
2023-03-19T10:12:48.890Z,97136.25
2023-03-19T10:15:22.316Z,97130.88
2023-03-19T10:17:54.955Z,97138.44
2023-03-19T10:20:34.333Z,97141.50
2023-03-19T10:23:23.549Z,97141.38
2023-03-19T10:25:54.138Z,97140.94
2023-03-19T10:28:22.345Z,97136.34
2023-03-19T10:31:21.262Z,97134.34
2023-03-19T10:34:08.005Z,97134.56
2023-03-19T10:36:36.422Z,97133.56
2023-03-19T10:39:06.891Z,97117.00
2023-03-19T10:41:52.904Z,97114.22
2023-03-19T10:44:33.270Z,97113.56
2023-03-19T10:47:10.965Z,97114.94
2023-03-19T10:49:38.034Z,97110.75
2023-03-19T10:52:05.609Z,97113.81
2023-03-19T10:54:32.132Z,97115.06
2023-03-19T10:57:01.210Z,97116.00
2023-03-19T10:59:30.418Z,97107.19
2023-03-19T11:02:14.474Z,97116.59
2023-03-19T11:04:41.043Z,97112.75
2023-03-19T11:07:13.329Z,97118.00
2023-03-19T11:09:42.252Z,97112.72
2023-03-19T11:12:20.063Z,97108.09
2023-03-19T11:14:52.457Z,97113.94
2023-03-19T11:17:26.083Z,97111.53
2023-03-19T11:19:55.564Z,97121.88
2023-03-19T11:22:22.954Z,97112.00
2023-03-19T11:24:50.879Z,97109.59
2023-03-19T11:27:17.478Z,97109.91
2023-03-19T11:29:45.413Z,97112.31
2023-03-19T11:32:38.366Z,97099.41
2023-03-19T11:35:15.986Z,97108.25
2023-03-19T11:37:56.161Z,97112.19
2023-03-19T11:40:37.550Z,97101.63
2023-03-19T11:43:25.338Z,97092.44
2023-03-19T11:46:29.311Z,97090.00
2023-03-19T11:49:10.403Z,97093.81
2023-03-19T11:51:47.589Z,97088.59
2023-03-19T11:54:33.403Z,97094.00
2023-03-19T11:57:24.465Z,97086.34
2023-03-19T11:59:56.704Z,97087.41
2023-03-19T12:02:41.093Z,97094.69
2023-03-19T12:05:20.974Z,97092.19
2023-03-19T12:07:59.303Z,97094.38
2023-03-19T12:11:00.302Z,97093.00
2023-03-19T12:13:36.633Z,97086.63
2023-03-19T12:16:14.043Z,97083.81
2023-03-19T12:19:11.701Z,97082.47
2023-03-19T12:22:11.604Z,97083.72
2023-03-19T12:24:53.234Z,97080.00
2023-03-19T12:27:32.280Z,97078.16
2023-03-19T12:30:30.721Z,97076.94
2023-03-19T12:33:25.161Z,97080.34
2023-03-19T12:35:56.343Z,97074.28
2023-03-19T12:38:40.011Z,97069.88
2023-03-19T12:41:12.952Z,97063.50
2023-03-19T12:43:49.384Z,97049.66
2023-03-19T12:46:25.432Z,97065.84
2023-03-19T12:49:07.421Z,97059.13
2023-03-19T12:51:40.562Z,97055.38
2023-03-19T12:54:21.318Z,97050.06
2023-03-19T12:56:53.547Z,97043.75
2023-03-19T12:59:29.447Z,97040.03
2023-03-19T13:02:17.398Z,97033.81
2023-03-19T13:04:59.882Z,97033.38
2023-03-19T13:07:35.000Z,97026.84
2023-03-19T13:10:11.112Z,97027.94
2023-03-19T13:12:38.558Z,97018.22
2023-03-19T13:15:20.599Z,97017.34
2023-03-19T13:18:17.199Z,97023.03
2023-03-19T13:21:02.308Z,97011.91
2023-03-19T13:23:34.127Z,97016.91
2023-03-19T13:26:04.645Z,97008.88
2023-03-19T13:28:59.428Z,97012.16
2023-03-19T13:31:34.859Z,97008.44
2023-03-19T13:34:07.781Z,97006.00
2023-03-19T13:36:41.567Z,96995.63
2023-03-19T13:39:18.482Z,97000.03
2023-03-19T13:41:44.919Z,96995.50
2023-03-19T13:44:39.782Z,96990.91
2023-03-19T13:47:28.808Z,96990.56
2023-03-19T13:50:19.989Z,96987.66
2023-03-19T13:52:50.837Z,97005.06
2023-03-19T13:55:30.017Z,97002.19
2023-03-19T13:58:34.234Z,96986.19
2023-03-19T14:01:01.311Z,96983.03
2023-03-19T14:03:37.067Z,96982.63
2023-03-19T14:06:04.134Z,96988.59
2023-03-19T14:08:47.238Z,96979.25
2023-03-19T14:11:23.956Z,96987.72
2023-03-19T14:13:53.007Z,96985.56
2023-03-19T14:16:25.303Z,96976.59
2023-03-19T14:18:57.314Z,96984.41
2023-03-19T14:21:46.859Z,96986.44
2023-03-19T14:27:33.190Z,96976.75
2023-03-19T14:30:11.120Z,96979.16
2023-03-19T14:32:42.354Z,96980.41
2023-03-19T14:35:16.708Z,96979.69
2023-03-19T14:37:49.077Z,96980.34
2023-03-19T14:40:25.875Z,96980.50
2023-03-19T14:43:05.063Z,96979.88
2023-03-19T14:45:59.767Z,96971.38
2023-03-19T14:48:58.341Z,96971.53
2023-03-19T14:51:36.822Z,96964.59
2023-03-19T14:54:36.046Z,96974.56
2023-03-19T14:57:28.069Z,96979.34
2023-03-19T14:59:55.707Z,96977.56
2023-03-19T15:02:41.906Z,96982.09
2023-03-19T15:05:26.739Z,96982.53
2023-03-19T15:07:56.753Z,96975.41
2023-03-19T15:10:30.024Z,96983.50
2023-03-19T15:13:19.607Z,96970.59
2023-03-19T15:16:10.453Z,96975.38
2023-03-19T15:18:37.796Z,96977.09
2023-03-19T15:21:05.958Z,96977.69
2023-03-19T15:23:32.931Z,96976.47
2023-03-19T15:26:03.128Z,96971.09
2023-03-19T15:28:34.491Z,96976.94
2023-03-19T15:31:26.224Z,96975.97
2023-03-19T15:33:53.411Z,96972.31
2023-03-19T15:36:30.224Z,96979.41
2023-03-19T15:39:07.696Z,96980.94
2023-03-19T15:41:40.482Z,96983.44
2023-03-19T15:44:15.633Z,96977.72
2023-03-19T15:46:44.716Z,96977.41
2023-03-19T15:49:17.263Z,96982.63
2023-03-19T15:51:46.849Z,96981.00
2023-03-19T15:54:13.442Z,96982.09
2023-03-19T15:56:40.075Z,96975.84
2023-03-19T15:59:06.815Z,96980.41
2023-03-19T16:01:34.545Z,96976.50
2023-03-19T16:04:12.750Z,96979.31
2023-03-19T16:06:40.332Z,96976.25
2023-03-19T16:09:12.955Z,96982.59
2023-03-19T16:11:42.404Z,96975.47
2023-03-19T16:14:23.019Z,96981.63
2023-03-19T16:16:49.948Z,96979.69
2023-03-19T16:19:37.577Z,96978.84
2023-03-19T16:22:16.741Z,96986.41
2023-03-19T16:24:46.252Z,96987.63
2023-03-19T16:27:21.551Z,96990.53
2023-03-19T16:29:56.912Z,96995.00
2023-03-19T16:32:28.617Z,96991.91
2023-03-19T16:35:16.312Z,97002.47
2023-03-19T16:37:47.226Z,96997.38
2023-03-19T16:40:13.752Z,96993.91
2023-03-19T16:42:50.857Z,97001.53
2023-03-19T16:45:17.733Z,97003.16
2023-03-19T16:47:49.883Z,97004.78
2023-03-19T16:50:18.025Z,97007.41
2023-03-19T16:52:46.175Z,97009.97
2023-03-19T16:55:20.820Z,97014.28
2023-03-19T16:57:54.796Z,97016.13
2023-03-19T17:00:22.385Z,97013.66
2023-03-19T17:02:49.352Z,97009.25
2023-03-19T17:05:16.909Z,97015.44
2023-03-19T17:07:43.609Z,97029.44
2023-03-19T17:10:16.892Z,97032.47
2023-03-19T17:12:46.204Z,97032.53
2023-03-19T17:15:18.443Z,97028.47
2023-03-19T17:17:44.958Z,97025.00
2023-03-19T17:20:18.219Z,97034.06
2023-03-19T17:22:44.793Z,97035.97
2023-03-19T17:25:18.125Z,97029.94
2023-03-19T17:27:45.771Z,97032.59
2023-03-19T17:30:13.285Z,97029.94
2023-03-19T17:32:43.513Z,97033.53
2023-03-19T17:35:19.310Z,97033.28
2023-03-19T17:37:46.334Z,97033.00
2023-03-19T17:40:19.956Z,97035.50
2023-03-19T17:42:46.918Z,97037.41
2023-03-19T17:45:15.391Z,97043.47
2023-03-19T17:47:46.424Z,97047.53
2023-03-19T17:50:33.247Z,97050.97
2023-03-19T17:53:00.460Z,97048.38
2023-03-19T17:55:29.636Z,97038.75
2023-03-19T17:57:56.819Z,97040.25
2023-03-19T18:00:24.813Z,97044.38
2023-03-19T18:02:54.089Z,97045.56
2023-03-19T18:05:23.440Z,97061.56
2023-03-19T18:07:52.993Z,97053.25
2023-03-19T18:10:27.447Z,97060.00
2023-03-19T18:12:54.710Z,97056.84
2023-03-19T18:15:22.400Z,97062.56
2023-03-19T18:17:51.772Z,97066.34
2023-03-19T18:20:21.432Z,97071.22
2023-03-19T18:22:48.377Z,97067.56
2023-03-19T18:25:20.532Z,97070.50
2023-03-19T18:27:48.085Z,97075.03
2023-03-19T18:30:17.909Z,97071.25
2023-03-19T18:32:47.914Z,97078.41
2023-03-19T18:35:17.400Z,97079.03
2023-03-19T18:37:46.918Z,97079.34
2023-03-19T18:40:19.814Z,97082.72
2023-03-19T18:42:46.967Z,97081.75
2023-03-19T18:45:15.172Z,97091.19
2023-03-19T18:47:42.859Z,97096.13
2023-03-19T18:50:35.818Z,97091.44
2023-03-19T18:53:02.450Z,97096.38
2023-03-19T18:55:31.096Z,97096.81
2023-03-19T18:58:02.832Z,97106.47
2023-03-19T19:00:35.005Z,97107.31
2023-03-19T19:03:02.768Z,97112.38
2023-03-19T19:05:32.463Z,97105.72
2023-03-19T19:08:02.902Z,97111.00
2023-03-19T19:10:34.728Z,97115.59
2023-03-19T19:13:02.234Z,97119.25
2023-03-19T19:15:36.413Z,97116.63
2023-03-19T19:18:25.390Z,97115.97
2023-03-19T19:20:53.660Z,97121.44
2023-03-19T19:23:21.798Z,97125.84
2023-03-19T19:25:52.067Z,97115.97
2023-03-19T19:28:30.618Z,97126.59
2023-03-19T19:30:59.609Z,97124.56
2023-03-19T19:33:31.673Z,97133.69
2023-03-19T19:35:58.199Z,97126.06
2023-03-19T19:38:24.904Z,97126.38
2023-03-19T19:40:54.794Z,97125.72
2023-03-19T19:43:24.189Z,97124.94
2023-03-19T19:45:53.764Z,97128.81
2023-03-19T19:48:24.590Z,97125.72
2023-03-19T19:50:52.002Z,97123.47
2023-03-19T19:53:19.368Z,97123.66
2023-03-19T19:55:46.476Z,97126.09
2023-03-19T19:58:25.588Z,97129.75
2023-03-19T20:01:02.969Z,97127.59
2023-03-19T20:03:32.397Z,97129.38
2023-03-19T20:06:00.800Z,97134.75
2023-03-19T20:08:28.569Z,97134.63
2023-03-19T20:10:56.096Z,97132.84
2023-03-19T20:13:22.798Z,97141.78
2023-03-19T20:15:50.252Z,97151.31
2023-03-19T20:18:19.611Z,97146.47
2023-03-19T20:20:46.713Z,97141.78
2023-03-19T20:23:15.165Z,97153.38
2023-03-19T20:25:43.182Z,97149.91
2023-03-19T20:28:20.886Z,97144.56
2023-03-19T20:30:47.467Z,97149.63
2023-03-19T20:33:14.162Z,97154.31
2023-03-19T20:35:41.081Z,97164.22
2023-03-19T20:38:07.765Z,97167.88
2023-03-19T20:40:39.553Z,97157.81
2023-03-19T20:43:07.750Z,97163.59
2023-03-19T20:45:36.345Z,97161.59
2023-03-19T20:48:03.945Z,97171.59
2023-03-19T20:50:32.850Z,97169.66
2023-03-19T20:53:03.556Z,97173.75
2023-03-19T20:55:32.150Z,97175.59
2023-03-19T20:57:59.069Z,97176.53
2023-03-19T21:00:25.764Z,97174.94
2023-03-19T21:02:55.326Z,97178.75
2023-03-19T21:05:23.773Z,97176.56
2023-03-19T21:07:53.351Z,97180.03
2023-03-19T21:10:23.951Z,97183.72
2023-03-19T21:12:50.809Z,97174.34
2023-03-19T21:15:17.689Z,97173.59
2023-03-19T21:17:44.315Z,97177.38
2023-03-19T21:20:31.934Z,97171.81
2023-03-19T21:22:58.705Z,97172.91
2023-03-19T21:25:29.320Z,97180.19
2023-03-19T21:28:03.534Z,97187.63
2023-03-19T21:30:30.384Z,97179.84
2023-03-19T21:32:57.274Z,97182.19
2023-03-19T21:35:26.010Z,97191.22
2023-03-19T21:37:53.041Z,97180.03
2023-03-19T21:40:28.020Z,97188.22
2023-03-19T21:43:02.101Z,97181.53
2023-03-19T21:45:32.620Z,97187.78
2023-03-19T21:48:05.339Z,97197.69
2023-03-19T21:50:31.872Z,97194.47
2023-03-19T21:53:01.408Z,97199.91
2023-03-19T21:55:29.704Z,97199.06
2023-03-19T21:57:57.478Z,97208.84
2023-03-19T22:00:24.562Z,97213.34
2023-03-19T22:02:51.262Z,97207.31
2023-03-19T22:05:26.433Z,97218.94
2023-03-19T22:07:53.989Z,97218.34
2023-03-19T22:10:22.925Z,97223.56
2023-03-19T22:12:49.999Z,97220.25
2023-03-19T22:15:18.137Z,97220.31
2023-03-19T22:17:44.670Z,97221.31
2023-03-19T22:20:19.945Z,97228.09
2023-03-19T22:22:46.589Z,97218.56
2023-03-19T22:25:15.473Z,97222.31
2023-03-19T22:27:42.701Z,97223.66
2023-03-19T22:30:20.228Z,97218.47
2023-03-19T22:32:47.306Z,97225.47
2023-03-19T22:35:20.006Z,97220.41
2023-03-19T22:37:46.407Z,97220.63
2023-03-19T22:40:13.927Z,97213.06
2023-03-19T22:42:42.381Z,97215.22
2023-03-19T22:45:41.275Z,97221.31
2023-03-19T22:48:08.503Z,97233.16
2023-03-19T22:50:34.943Z,97240.53
2023-03-19T22:53:02.050Z,97243.97
2023-03-19T22:55:28.426Z,97244.13
2023-03-19T22:57:54.924Z,97249.66
2023-03-19T23:00:23.746Z,97244.16
2023-03-19T23:02:56.824Z,97242.78
2023-03-19T23:05:25.639Z,97246.03
2023-03-19T23:07:53.343Z,97245.41
2023-03-19T23:10:20.199Z,97248.19
2023-03-19T23:12:47.538Z,97242.56
2023-03-19T23:15:14.035Z,97249.66
2023-03-19T23:17:42.190Z,97235.84
2023-03-19T23:20:13.933Z,97242.13
2023-03-19T23:22:41.284Z,97237.50
2023-03-19T23:25:15.031Z,97236.34
2023-03-19T23:27:43.137Z,97240.59
2023-03-19T23:30:22.980Z,97240.41
2023-03-19T23:32:49.755Z,97237.72
2023-03-19T23:35:19.266Z,97242.78
2023-03-19T23:37:46.367Z,97245.06
2023-03-19T23:40:14.758Z,97244.84
2023-03-19T23:42:45.718Z,97244.50
2023-03-19T23:45:39.972Z,97247.72
2023-03-19T23:48:11.450Z,97246.63
2023-03-19T23:50:38.383Z,97245.47
2023-03-19T23:53:05.424Z,97238.19
2023-03-19T23:55:33.023Z,97252.81
2023-03-19T23:58:01.376Z,97256.03
